Ana Sayfa
METAR-TAF:

METAR-TAF

Havaalanları :

Albion Municipal Airport

Albion, Nebraska, Amerika Birleşik Devletleri

Enlem: 41-43-42N, Boylam: 098-03-20W, yükseklik: 551 m

Güncel hava durumu gözlemi

Rapor saat 16:15 UTC de 31 dakika önce yapıldı.
Rüzgar kuzeydan 8 kt
Sıcaklık 16°C
Nem 72%
Basınç 1026 hPa
Görüş mesafesi: 16.1 km
Açık gökyüzü

METAR: KBVN 191615Z AUTO 36008KT 10SM CLR 16/11 A3029 RMK AO2 T01600113

Saat: 11:46 (16:46 UTC)


TAF: eksik

4.000'den fazla havaalanı için hava durumu gözlemleri ve tahminleri (METAR ve TAF raporları).

Kullanılabilir istasyonlar harita üzerinde sarı ve kırmızı noktalarla gösterilir.

İstasyonun adını görmek için fareyi noktanın üzerinde gezdirin.

Sonrasında hava gözlem ve tahminlerini görmek için tıklayın.

Haritayı değiştirmek için: yaklaştırmak için siyah artı işaretli yeşil düğmeye ve uzaklaştırmak için de eksi işaretli düğmeye hızla tıklayın; bitişik haritalar için yeşil okları kullanın.


METAR-TAF: